Time;durP1;ratioP1;P1;durP2;ratioP2;P2;SDS_P1;SDS_P2;PMS_P1;PMS_P2;Temp;Humidity;BMP_temperature;BMP_pressure;BME280_temperature;BME280_humidity;BME280_pressure;Samples;Min_cycle;Max_cycle;Signal;HPM_P1;HPM_P2
2022/03/10 00:01:51;;;;;;;19.05;10.90;;;;;;;;;;5060091;28;20472;-64
2022/03/10 00:04:17;;;;;;;20.00;10.43;;;;;;;;;;5063868;28;20120;-63
2022/03/10 00:06:43;;;;;;;18.38;9.30;;;;;;;;;;5068262;28;20056;-63
2022/03/10 00:09:09;;;;;;;17.80;9.57;;;;;;;;;;5065455;28;20037;-63
2022/03/10 00:11:35;;;;;;;19.67;11.00;;;;;;;;;;5067545;28;20047;-63
2022/03/10 00:14:01;;;;;;;21.33;10.55;;;;;;;;;;5056029;28;20160;-64
2022/03/10 00:16:28;;;;;;;18.55;10.10;;;;;;;;;;5067643;28;20041;-64
2022/03/10 00:18:54;;;;;;;17.85;10.27;;;;;;;;;;5065562;28;20487;-63
2022/03/10 00:21:20;;;;;;;23.30;10.38;;;;;;;;;;5067060;28;20067;-63
2022/03/10 00:23:46;;;;;;;20.85;10.30;;;;;;;;;;5065725;28;20103;-63
2022/03/10 00:26:12;;;;;;;17.60;9.63;;;;;;;;;;5068094;28;20147;-63
2022/03/10 00:28:38;;;;;;;17.42;10.82;;;;;;;;;;5059009;28;20044;-63
2022/03/10 00:31:05;;;;;;;22.05;11.20;;;;;;;;;;5058407;28;20047;-63
2022/03/10 00:33:31;;;;;;;19.42;10.18;;;;;;;;;;5055433;28;20044;-63
2022/03/10 00:35:57;;;;;;;24.13;10.63;;;;;;;;;;5057746;28;20688;-63
2022/03/10 00:38:23;;;;;;;17.40;9.15;;;;;;;;;;5058424;28;20056;-63
2022/03/10 00:40:49;;;;;;;19.52;10.82;;;;;;;;;;5053300;28;20472;-63
2022/03/10 00:43:15;;;;;;;17.75;10.35;;;;;;;;;;5059784;28;20501;-63
2022/03/10 00:45:42;;;;;;;22.05;11.50;;;;;;;;;;5052011;28;20468;-63
2022/03/10 00:48:09;;;;;;;20.30;11.43;;;;;;;;;;5049650;28;20047;-63
2022/03/10 00:50:35;;;;;;;18.75;10.23;;;;;;;;;;5059066;28;20049;-63
2022/03/10 00:53:01;;;;;;;16.90;9.30;;;;;;;;;;5049664;28;20049;-63
2022/03/10 00:55:27;;;;;;;17.73;10.38;;;;;;;;;;5056808;28;20049;-63
2022/03/10 00:57:54;;;;;;;23.73;13.65;;;;;;;;;;5061536;28;20040;-63
2022/03/10 01:00:22;;;;;;;20.38;11.05;;;;;;;;;;5069118;28;20044;-63
2022/03/10 01:02:48;;;;;;;16.25;10.40;;;;;;;;;;5062419;28;20369;-63
2022/03/10 01:05:15;;;;;;;20.38;10.80;;;;;;;;;;5066369;28;20075;-63
2022/03/10 01:07:41;;;;;;;18.48;10.95;;;;;;;;;;5060101;28;20337;-63
2022/03/10 01:10:07;;;;;;;21.77;11.25;;;;;;;;;;5051548;28;20452;-63
2022/03/10 01:12:34;;;;;;;23.05;11.88;;;;;;;;;;5038792;28;20457;-63
2022/03/10 01:15:00;;;;;;;20.80;10.82;;;;;;;;;;5051675;28;20460;-63
2022/03/10 01:17:26;;;;;;;20.58;9.88;;;;;;;;;;5062593;28;20044;-63
2022/03/10 01:19:52;;;;;;;17.63;11.18;;;;;;;;;;5063541;28;20055;-63
2022/03/10 01:22:19;;;;;;;18.05;10.27;;;;;;;;;;5063728;28;20119;-63
2022/03/10 01:24:45;;;;;;;19.98;11.05;;;;;;;;;;5092776;28;20049;-63
2022/03/10 01:27:11;;;;;;;18.60;9.95;;;;;;;;;;5064622;28;20578;-63
2022/03/10 01:29:37;;;;;;;21.52;10.20;;;;;;;;;;5066739;28;20063;-63
2022/03/10 01:32:04;;;;;;;16.98;9.82;;;;;;;;;;5055126;28;20045;-63
2022/03/10 01:34:30;;;;;;;25.30;11.63;;;;;;;;;;5047527;28;20124;-63
2022/03/10 01:36:56;;;;;;;21.83;10.52;;;;;;;;;;5057521;28;20091;-63
2022/03/10 01:39:23;;;;;;;20.38;10.73;;;;;;;;;;5055495;28;20051;-63
2022/03/10 01:41:49;;;;;;;18.67;10.40;;;;;;;;;;5055738;28;20063;-63
2022/03/10 01:44:20;;;;;;;18.30;10.27;;;;;;;;;;5055135;28;20036;-63
2022/03/10 01:46:46;;;;;;;21.25;11.55;;;;;;;;;;5052240;28;20053;-63
2022/03/10 01:49:12;;;;;;;19.33;11.63;;;;;;;;;;5051817;28;20041;-63
2022/03/10 01:51:39;;;;;;;21.35;10.60;;;;;;;;;;5052542;28;20052;-63
2022/03/10 01:54:05;;;;;;;21.17;11.10;;;;;;;;;;5056799;28;20040;-63
2022/03/10 01:56:32;;;;;;;17.77;10.40;;;;;;;;;;5061794;28;20135;-63
2022/03/10 01:58:59;;;;;;;17.67;10.43;;;;;;;;;;5057161;28;20048;-63
2022/03/10 02:01:25;;;;;;;22.42;10.60;;;;;;;;;;5065103;28;20124;-63
2022/03/10 02:03:51;;;;;;;16.65;9.45;;;;;;;;;;5058671;28;20063;-63
2022/03/10 02:06:18;;;;;;;20.73;10.40;;;;;;;;;;5059865;28;20044;-63
2022/03/10 02:11:29;;;;;;;16.67;9.75;;;;;;;;;;5062501;28;20037;-63
2022/03/10 02:13:55;;;;;;;16.35;9.75;;;;;;;;;;5062905;28;20071;-63
2022/03/10 02:19:06;;;;;;;18.48;9.95;;;;;;;;;;5049263;28;20049;-63
2022/03/10 02:21:32;;;;;;;20.77;11.30;;;;;;;;;;5045353;28;20479;-63
2022/03/10 02:23:58;;;;;;;18.38;10.35;;;;;;;;;;5066709;28;20044;-63
2022/03/10 02:26:25;;;;;;;18.65;9.82;;;;;;;;;;5066382;28;20498;-63
2022/03/10 02:28:51;;;;;;;20.42;11.90;;;;;;;;;;5059026;28;20044;-63
2022/03/10 02:31:17;;;;;;;24.67;11.50;;;;;;;;;;5055388;28;20489;-63
2022/03/10 02:33:43;;;;;;;23.23;10.52;;;;;;;;;;5053040;28;20430;-63
2022/03/10 02:36:09;;;;;;;17.40;10.25;;;;;;;;;;5059272;28;20052;-63
2022/03/10 02:38:36;;;;;;;17.95;10.05;;;;;;;;;;5051927;28;20047;-63
2022/03/10 02:41:02;;;;;;;16.05;10.07;;;;;;;;;;5059832;28;20049;-63
2022/03/10 02:43:28;;;;;;;21.35;11.43;;;;;;;;;;5062120;28;20033;-63
2022/03/10 02:45:54;;;;;;;18.08;10.23;;;;;;;;;;5062063;28;20131;-63
2022/03/10 02:48:20;;;;;;;22.92;11.20;;;;;;;;;;5057946;28;20053;-63
2022/03/10 02:50:46;;;;;;;19.35;11.27;;;;;;;;;;5058864;28;20045;-63
2022/03/10 02:53:15;;;;;;;22.58;10.63;;;;;;;;;;5057871;28;20053;-63
2022/03/10 02:55:42;;;;;;;22.25;11.20;;;;;;;;;;5067409;28;20041;-63
2022/03/10 02:58:08;;;;;;;23.48;11.05;;;;;;;;;;5062395;28;20045;-63
2022/03/10 03:00:34;;;;;;;17.02;10.27;;;;;;;;;;5065115;28;20048;-63
2022/03/10 03:03:00;;;;;;;17.92;11.27;;;;;;;;;;5059356;28;20041;-63
2022/03/10 03:05:26;;;;;;;21.13;11.05;;;;;;;;;;5054652;28;20060;-63
2022/03/10 03:07:52;;;;;;;21.42;11.88;;;;;;;;;;5062188;28;20040;-63
2022/03/10 03:10:18;;;;;;;19.38;10.48;;;;;;;;;;5066157;28;20476;-63
2022/03/10 03:12:46;;;;;;;21.63;10.85;;;;;;;;;;5062748;28;20120;-63
2022/03/10 03:15:12;;;;;;;21.85;10.75;;;;;;;;;;5061916;28;20346;-63
2022/03/10 03:17:38;;;;;;;20.15;11.32;;;;;;;;;;5056706;28;20041;-63
2022/03/10 03:20:05;;;;;;;22.65;11.90;;;;;;;;;;5057106;28;20049;-63
2022/03/10 03:22:31;;;;;;;21.27;11.50;;;;;;;;;;5058842;28;20103;-63
2022/03/10 03:24:58;;;;;;;25.15;11.85;;;;;;;;;;5058766;28;20055;-63
2022/03/10 03:27:24;;;;;;;19.17;11.45;;;;;;;;;;5062547;28;20099;-63
2022/03/10 03:29:50;;;;;;;19.05;10.90;;;;;;;;;;5069767;28;20036;-63
2022/03/10 03:32:19;;;;;;;19.67;11.35;;;;;;;;;;5060526;28;20040;-63
2022/03/10 03:34:45;;;;;;;21.95;11.65;;;;;;;;;;5062511;28;20052;-63
2022/03/10 03:37:12;;;;;;;21.55;11.05;;;;;;;;;;5061726;28;20056;-63
2022/03/10 03:39:38;;;;;;;19.52;11.38;;;;;;;;;;5061268;28;20049;-63
2022/03/10 03:42:04;;;;;;;19.98;11.82;;;;;;;;;;5060476;28;20040;-63
2022/03/10 03:44:30;;;;;;;19.00;11.95;;;;;;;;;;5063404;28;20384;-63
2022/03/10 03:46:56;;;;;;;20.55;11.30;;;;;;;;;;5059124;28;20056;-63
2022/03/10 03:49:23;;;;;;;21.67;10.93;;;;;;;;;;5057174;28;20105;-63
2022/03/10 03:51:49;;;;;;;19.02;10.70;;;;;;;;;;5059115;28;20124;-63
2022/03/10 03:54:15;;;;;;;22.63;11.02;;;;;;;;;;5053320;28;20052;-62
2022/03/10 03:56:41;;;;;;;22.02;11.30;;;;;;;;;;5054910;28;20060;-63
2022/03/10 03:59:07;;;;;;;23.50;11.45;;;;;;;;;;5064168;28;20052;-63
2022/03/10 04:01:34;;;;;;;19.27;10.77;;;;;;;;;;5069253;28;20048;-63
2022/03/10 04:04:00;;;;;;;21.00;12.20;;;;;;;;;;5067432;28;20145;-63
2022/03/10 04:06:26;;;;;;;23.55;12.38;;;;;;;;;;5063073;28;20040;-63
2022/03/10 04:08:52;;;;;;;18.48;10.25;;;;;;;;;;5071323;28;20056;-63
2022/03/10 04:11:18;;;;;;;21.25;11.70;;;;;;;;;;5070568;28;20041;-63
2022/03/10 04:13:45;;;;;;;18.33;10.90;;;;;;;;;;5058335;28;20064;-63
2022/03/10 04:16:11;;;;;;;20.65;10.95;;;;;;;;;;5061652;28;20128;-63
2022/03/10 04:18:37;;;;;;;18.25;11.35;;;;;;;;;;5068518;28;20393;-63
2022/03/10 04:21:04;;;;;;;23.55;12.23;;;;;;;;;;5068094;28;20036;-63
2022/03/10 04:23:30;;;;;;;21.75;11.35;;;;;;;;;;5067170;28;20044;-63
2022/03/10 04:25:56;;;;;;;16.98;10.80;;;;;;;;;;5066665;28;20037;-62
2022/03/10 04:28:22;;;;;;;23.13;12.00;;;;;;;;;;5063179;28;20047;-63
2022/03/10 04:30:49;;;;;;;25.23;12.80;;;;;;;;;;5055428;28;20048;-63
2022/03/10 04:33:16;;;;;;;22.33;11.80;;;;;;;;;;5061974;28;20040;-63
2022/03/10 04:35:43;;;;;;;19.73;11.15;;;;;;;;;;5062396;28;20060;-63
2022/03/10 04:38:10;;;;;;;22.83;11.48;;;;;;;;;;5057501;28;20533;-63
2022/03/10 04:40:37;;;;;;;19.90;11.45;;;;;;;;;;5058491;28;20140;-63
2022/03/10 04:43:03;;;;;;;21.60;11.85;;;;;;;;;;5056043;28;20049;-63
2022/03/10 04:45:30;;;;;;;24.85;12.73;;;;;;;;;;5059254;28;20360;-63
2022/03/10 04:47:56;;;;;;;22.08;12.25;;;;;;;;;;5058555;28;20047;-63
2022/03/10 04:50:22;;;;;;;22.35;12.27;;;;;;;;;;5051653;28;20078;-63
2022/03/10 04:52:49;;;;;;;22.25;12.80;;;;;;;;;;5055174;28;20488;-63
2022/03/10 04:55:15;;;;;;;21.85;12.25;;;;;;;;;;5054824;28;20453;-63
2022/03/10 04:57:42;;;;;;;20.83;12.02;;;;;;;;;;5056985;28;20048;-63
2022/03/10 05:00:10;;;;;;;22.60;11.90;;;;;;;;;;5055928;28;20047;-63
2022/03/10 05:02:38;;;;;;;21.33;12.52;;;;;;;;;;5056934;28;20052;-63
2022/03/10 05:05:05;;;;;;;21.40;12.10;;;;;;;;;;5060152;28;20040;-63
2022/03/10 05:07:31;;;;;;;19.90;11.75;;;;;;;;;;5050723;28;20132;-63
2022/03/10 05:09:58;;;;;;;23.77;13.18;;;;;;;;;;5055886;28;20460;-63
2022/03/10 05:12:24;;;;;;;21.15;11.88;;;;;;;;;;5055935;28;20539;-63
2022/03/10 05:14:50;;;;;;;22.48;12.23;;;;;;;;;;5048561;28;20044;-63
2022/03/10 05:17:17;;;;;;;20.77;12.00;;;;;;;;;;5056557;28;20040;-63
2022/03/10 05:19:43;;;;;;;23.08;13.40;;;;;;;;;;5057773;28;20056;-63
2022/03/10 05:22:09;;;;;;;22.30;12.23;;;;;;;;;;5055737;28;20101;-63
2022/03/10 05:24:36;;;;;;;24.83;13.40;;;;;;;;;;5050482;28;20048;-63
2022/03/10 05:27:02;;;;;;;24.92;12.23;;;;;;;;;;5050600;28;20396;-63
2022/03/10 05:29:28;;;;;;;23.30;12.65;;;;;;;;;;5056424;28;20045;-63
2022/03/10 05:31:54;;;;;;;21.30;12.23;;;;;;;;;;5053909;28;20085;-63
2022/03/10 05:34:20;;;;;;;27.60;12.73;;;;;;;;;;5057730;28;20053;-63
2022/03/10 05:36:46;;;;;;;26.05;13.25;;;;;;;;;;5056602;28;20072;-63
2022/03/10 05:39:12;;;;;;;24.10;12.75;;;;;;;;;;5051655;28;20433;-63
2022/03/10 05:41:39;;;;;;;23.95;13.65;;;;;;;;;;5049695;28;20090;-63
2022/03/10 05:44:05;;;;;;;25.85;14.25;;;;;;;;;;5051190;28;20127;-63
2022/03/10 05:46:31;;;;;;;23.17;13.10;;;;;;;;;;5052018;28;20051;-63
2022/03/10 05:48:57;;;;;;;24.48;13.07;;;;;;;;;;5049922;28;20033;-63
2022/03/10 05:51:23;;;;;;;23.85;13.98;;;;;;;;;;5051391;28;20123;-63
2022/03/10 05:53:50;;;;;;;26.05;13.32;;;;;;;;;;5047525;28;20060;-63
2022/03/10 05:56:17;;;;;;;25.05;13.93;;;;;;;;;;5051871;28;20120;-63
2022/03/10 05:58:43;;;;;;;26.00;13.32;;;;;;;;;;5084813;28;20047;-63
2022/03/10 06:01:10;;;;;;;22.95;12.10;;;;;;;;;;5049656;28;20527;-63
2022/03/10 06:03:36;;;;;;;22.45;13.30;;;;;;;;;;5046867;28;20037;-63
2022/03/10 06:06:02;;;;;;;24.67;13.85;;;;;;;;;;5045280;28;20144;-63
2022/03/10 06:08:29;;;;;;;22.77;12.40;;;;;;;;;;5046157;28;20480;-63
2022/03/10 06:10:55;;;;;;;23.45;12.70;;;;;;;;;;5044851;28;20056;-63
2022/03/10 06:13:22;;;;;;;27.27;13.57;;;;;;;;;;5047879;28;20051;-63
2022/03/10 06:15:48;;;;;;;23.05;13.65;;;;;;;;;;5048331;28;20045;-63
2022/03/10 06:18:14;;;;;;;34.08;13.93;;;;;;;;;;5047941;28;20051;-63
2022/03/10 06:20:40;;;;;;;24.20;12.70;;;;;;;;;;5046951;28;20068;-63
2022/03/10 06:23:07;;;;;;;26.60;13.38;;;;;;;;;;5049808;28;20368;-63
2022/03/10 06:25:33;;;;;;;28.80;14.20;;;;;;;;;;5048446;28;20056;-63
2022/03/10 06:27:59;;;;;;;26.17;13.68;;;;;;;;;;5047655;28;20403;-63
2022/03/10 06:30:25;;;;;;;25.88;12.63;;;;;;;;;;5044259;28;20052;-63
2022/03/10 06:32:51;;;;;;;23.75;12.90;;;;;;;;;;5047881;28;20087;-64
2022/03/10 06:35:17;;;;;;;23.48;12.40;;;;;;;;;;5044002;28;20045;-63
2022/03/10 06:37:45;;;;;;;25.15;13.05;;;;;;;;;;5042342;28;20041;-64
2022/03/10 06:40:11;;;;;;;24.42;13.80;;;;;;;;;;5031007;28;20412;-64
2022/03/10 06:42:38;;;;;;;32.08;13.63;;;;;;;;;;5030292;28;20052;-64
2022/03/10 06:45:04;;;;;;;27.65;14.77;;;;;;;;;;5032675;28;20408;-64
2022/03/10 06:47:31;;;;;;;23.20;13.13;;;;;;;;;;5030808;28;20450;-64
2022/03/10 06:49:57;;;;;;;28.90;13.95;;;;;;;;;;5031991;28;20049;-64
2022/03/10 06:52:23;;;;;;;25.45;13.70;;;;;;;;;;5031644;28;20376;-63
2022/03/10 06:54:49;;;;;;;28.30;13.18;;;;;;;;;;5030324;28;20460;-64
2022/03/10 06:57:15;;;;;;;23.25;13.15;;;;;;;;;;5039465;28;20128;-63
2022/03/10 06:59:41;;;;;;;28.80;15.18;;;;;;;;;;5048371;28;20037;-63
2022/03/10 07:02:08;;;;;;;23.17;13.90;;;;;;;;;;5049446;28;20033;-63
2022/03/10 07:04:34;;;;;;;26.67;14.63;;;;;;;;;;5045352;28;20124;-64
2022/03/10 07:07:00;;;;;;;24.92;13.13;;;;;;;;;;5045885;28;20103;-63
2022/03/10 07:09:26;;;;;;;26.52;14.30;;;;;;;;;;5046008;28;20364;-63
2022/03/10 07:11:53;;;;;;;25.77;15.15;;;;;;;;;;5041327;28;20052;-63
2022/03/10 07:14:19;;;;;;;23.60;13.73;;;;;;;;;;5040878;28;20056;-63
2022/03/10 07:16:45;;;;;;;22.55;12.93;;;;;;;;;;5049429;28;20045;-63
2022/03/10 07:19:12;;;;;;;31.20;13.30;;;;;;;;;;5031502;28;20041;-64
2022/03/10 07:21:39;;;;;;;24.63;14.18;;;;;;;;;;5049845;28;20071;-63
2022/03/10 07:24:05;;;;;;;25.25;13.40;;;;;;;;;;5048658;28;20041;-63
2022/03/10 07:26:31;;;;;;;27.83;13.18;;;;;;;;;;5046511;28;20041;-64
2022/03/10 07:28:59;;;;;;;23.77;13.45;;;;;;;;;;5048964;28;20373;-64
2022/03/10 07:31:29;;;;;;;22.80;12.23;;;;;;;;;;5052569;28;20053;-64
2022/03/10 07:33:55;;;;;;;26.83;14.85;;;;;;;;;;5050225;28;20057;-64
2022/03/10 07:36:21;;;;;;;26.00;12.93;;;;;;;;;;5043949;28;20396;-64
2022/03/10 07:38:48;;;;;;;25.27;14.13;;;;;;;;;;5049647;28;20049;-63
2022/03/10 07:41:14;;;;;;;26.10;14.30;;;;;;;;;;5050058;28;20040;-64
2022/03/10 07:43:40;;;;;;;24.83;14.00;;;;;;;;;;5050640;28;20044;-64
2022/03/10 07:46:06;;;;;;;24.77;13.02;;;;;;;;;;5052962;28;20480;-64
2022/03/10 07:48:33;;;;;;;24.27;13.38;;;;;;;;;;5051632;28;20045;-64
2022/03/10 07:50:59;;;;;;;26.70;13.73;;;;;;;;;;5052007;28;20140;-64
2022/03/10 07:53:25;;;;;;;27.92;15.15;;;;;;;;;;5052450;28;20045;-64
2022/03/10 07:55:55;;;;;;;26.15;14.07;;;;;;;;;;5052653;28;20119;-64
2022/03/10 07:58:23;;;;;;;23.15;13.18;;;;;;;;;;5033892;28;20045;-64
2022/03/10 08:00:51;;;;;;;27.05;15.23;;;;;;;;;;5034371;28;20125;-64
2022/03/10 08:03:17;;;;;;;22.80;12.73;;;;;;;;;;5032975;28;20144;-64
2022/03/10 08:05:45;;;;;;;25.55;14.63;;;;;;;;;;5033434;28;20128;-64
2022/03/10 08:08:13;;;;;;;25.85;14.27;;;;;;;;;;5053001;28;20047;-64
2022/03/10 08:10:40;;;;;;;23.60;14.85;;;;;;;;;;5052006;28;20068;-64
2022/03/10 08:13:06;;;;;;;22.50;13.55;;;;;;;;;;5052015;28;20113;-64
2022/03/10 08:15:32;;;;;;;26.25;14.05;;;;;;;;;;5048011;28;20049;-64
2022/03/10 08:17:59;;;;;;;23.30;12.85;;;;;;;;;;5039659;28;20060;-64
2022/03/10 08:20:25;;;;;;;24.48;13.57;;;;;;;;;;5052577;28;20505;-64
2022/03/10 08:22:52;;;;;;;25.33;14.10;;;;;;;;;;5052482;28;20041;-64
2022/03/10 08:25:18;;;;;;;25.15;13.40;;;;;;;;;;5032844;28;20099;-64
2022/03/10 08:27:47;;;;;;;27.00;14.90;;;;;;;;;;5032537;28;20432;-64
2022/03/10 08:30:13;;;;;;;28.10;14.80;;;;;;;;;;5033720;28;20156;-72
2022/03/10 08:32:40;;;;;;;25.15;13.75;;;;;;;;;;5062791;28;20614;-64
2022/03/10 08:35:07;;;;;;;24.30;13.85;;;;;;;;;;5050692;28;20041;-64
2022/03/10 08:37:33;;;;;;;25.30;13.82;;;;;;;;;;5052026;28;20431;-64
2022/03/10 08:39:59;;;;;;;28.20;14.98;;;;;;;;;;5051475;28;20041;-64
2022/03/10 08:42:25;;;;;;;27.42;13.93;;;;;;;;;;5033514;28;20041;-64
2022/03/10 08:44:51;;;;;;;25.10;14.07;;;;;;;;;;5034467;28;20052;-64
2022/03/10 08:47:17;;;;;;;27.95;15.55;;;;;;;;;;5048147;28;20095;-65
2022/03/10 08:49:43;;;;;;;25.15;14.90;;;;;;;;;;5035338;28;20052;-65
2022/03/10 08:52:11;;;;;;;28.40;15.30;;;;;;;;;;5050341;28;20040;-64
2022/03/10 08:54:37;;;;;;;27.52;14.50;;;;;;;;;;5047173;28;20201;-65
2022/03/10 08:57:03;;;;;;;28.02;14.40;;;;;;;;;;5050494;28;20442;-64
2022/03/10 08:59:29;;;;;;;24.67;15.20;;;;;;;;;;5036364;28;20072;-65
2022/03/10 09:01:56;;;;;;;27.55;15.27;;;;;;;;;;5032377;28;20041;-64
2022/03/10 09:04:22;;;;;;;27.95;14.38;;;;;;;;;;5033050;28;20057;-65
2022/03/10 09:06:48;;;;;;;24.42;14.02;;;;;;;;;;5031632;28;20041;-64
2022/03/10 09:09:16;;;;;;;29.70;15.05;;;;;;;;;;5031912;28;20094;-64
2022/03/10 09:11:42;;;;;;;24.67;15.32;;;;;;;;;;5033050;28;20084;-65
2022/03/10 09:14:09;;;;;;;24.98;14.98;;;;;;;;;;5033045;28;20038;-65
2022/03/10 09:16:35;;;;;;;28.00;15.07;;;;;;;;;;5031991;28;20426;-65
2022/03/10 09:19:01;;;;;;;26.38;15.65;;;;;;;;;;5032851;28;20048;-64
2022/03/10 09:21:28;;;;;;;30.50;15.32;;;;;;;;;;5031967;28;20372;-65
2022/03/10 09:23:54;;;;;;;27.90;15.45;;;;;;;;;;5032909;28;20045;-64
2022/03/10 09:26:20;;;;;;;26.60;15.05;;;;;;;;;;5032769;28;20041;-65
2022/03/10 09:28:46;;;;;;;24.63;14.55;;;;;;;;;;5032956;28;20046;-65
2022/03/10 09:31:12;;;;;;;24.15;14.45;;;;;;;;;;5040396;28;20051;-65
2022/03/10 09:33:40;;;;;;;28.23;15.40;;;;;;;;;;5050975;28;20028;-65
2022/03/10 09:36:06;;;;;;;27.48;15.07;;;;;;;;;;5049773;28;20041;-64
2022/03/10 09:38:32;;;;;;;26.67;15.43;;;;;;;;;;5049169;28;20037;-65
2022/03/10 09:40:59;;;;;;;26.65;16.38;;;;;;;;;;5049539;28;20158;-64
2022/03/10 09:43:27;;;;;;;24.67;14.95;;;;;;;;;;5030303;28;20148;-64
2022/03/10 09:45:54;;;;;;;25.85;16.00;;;;;;;;;;5032267;28;20128;-65
2022/03/10 09:48:20;;;;;;;26.90;15.25;;;;;;;;;;5042942;28;20124;-64
2022/03/10 09:50:47;;;;;;;29.00;14.73;;;;;;;;;;5049707;28;20048;-65
2022/03/10 09:53:13;;;;;;;32.97;15.10;;;;;;;;;;5048510;28;20481;-65
2022/03/10 09:55:39;;;;;;;27.27;15.05;;;;;;;;;;5047862;28;20049;-64
2022/03/10 09:58:06;;;;;;;29.13;15.40;;;;;;;;;;5041635;28;20046;-64
2022/03/10 10:00:32;;;;;;;23.70;14.57;;;;;;;;;;5031000;28;20401;-64
2022/03/10 10:02:58;;;;;;;29.42;16.63;;;;;;;;;;5032001;28;20065;-65
2022/03/10 10:05:24;;;;;;;24.38;15.35;;;;;;;;;;5031194;28;20042;-65
2022/03/10 10:08:06;;;;;;;27.38;16.00;;;;;;;;;;5047518;28;20048;-65
2022/03/10 10:10:34;;;;;;;28.27;17.45;;;;;;;;;;5075750;28;20045;-64
2022/03/10 10:13:05;;;;;;;29.90;16.58;;;;;;;;;;5050485;28;20041;-64
2022/03/10 10:15:34;;;;;;;27.42;15.80;;;;;;;;;;5049400;28;20671;-65
2022/03/10 10:18:00;;;;;;;28.17;16.23;;;;;;;;;;5048555;28;20053;-65
2022/03/10 10:20:30;;;;;;;27.13;16.60;;;;;;;;;;5050603;28;20439;-64
2022/03/10 10:22:56;;;;;;;29.42;16.98;;;;;;;;;;5048602;28;20392;-64
2022/03/10 10:25:23;;;;;;;27.25;17.33;;;;;;;;;;5033501;28;20068;-64
2022/03/10 10:27:49;;;;;;;32.75;17.02;;;;;;;;;;5049403;28;20108;-64
2022/03/10 10:30:16;;;;;;;30.95;18.35;;;;;;;;;;5050234;28;20056;-64
2022/03/10 10:32:43;;;;;;;26.60;16.77;;;;;;;;;;5049832;28;20044;-64
2022/03/10 10:35:10;;;;;;;27.35;16.08;;;;;;;;;;5050669;28;20181;-64
2022/03/10 10:37:38;;;;;;;27.00;16.67;;;;;;;;;;5049232;28;20401;-65
2022/03/10 10:40:05;;;;;;;30.73;17.67;;;;;;;;;;5048066;28;20463;-65
2022/03/10 10:42:32;;;;;;;29.48;17.55;;;;;;;;;;5050162;28;20076;-65
2022/03/10 10:45:00;;;;;;;27.85;17.90;;;;;;;;;;5042620;28;20046;-65
2022/03/10 10:47:27;;;;;;;31.33;16.10;;;;;;;;;;5041460;28;20534;-65
2022/03/10 10:50:01;;;;;;;32.00;18.13;;;;;;;;;;5050330;28;20067;-65
2022/03/10 10:52:40;;;;;;;29.52;17.65;;;;;;;;;;5050213;28;20041;-65
2022/03/10 10:55:09;;;;;;;33.53;18.13;;;;;;;;;;5049413;28;20114;-65
2022/03/10 10:57:35;;;;;;;29.73;17.42;;;;;;;;;;5049961;28;20033;-65
2022/03/10 11:00:05;;;;;;;30.42;17.60;;;;;;;;;;5048075;28;20061;-65
2022/03/10 11:02:31;;;;;;;27.83;16.05;;;;;;;;;;5050425;28;20041;-65
2022/03/10 11:04:59;;;;;;;28.08;17.95;;;;;;;;;;5038324;28;20393;-65
2022/03/10 11:07:25;;;;;;;27.45;16.67;;;;;;;;;;5034453;28;20038;-65
2022/03/10 11:09:52;;;;;;;30.15;18.48;;;;;;;;;;5034093;28;20178;-65
2022/03/10 11:12:19;;;;;;;27.92;17.40;;;;;;;;;;5033801;28;20044;-65
2022/03/10 11:14:46;;;;;;;30.17;17.42;;;;;;;;;;5034916;28;20049;-65
2022/03/10 11:17:13;;;;;;;29.52;17.88;;;;;;;;;;5035688;28;20123;-65
2022/03/10 11:19:42;;;;;;;27.83;17.70;;;;;;;;;;5053578;28;20033;-65
2022/03/10 11:22:19;;;;;;;28.92;17.92;;;;;;;;;;5052814;28;20044;-65
2022/03/10 11:24:52;;;;;;;26.42;17.95;;;;;;;;;;5035225;28;20079;-64
2022/03/10 11:27:21;;;;;;;33.22;18.80;;;;;;;;;;5033466;28;20046;-65
2022/03/10 11:29:49;;;;;;;27.35;18.02;;;;;;;;;;5036926;28;20452;-65
2022/03/10 11:32:15;;;;;;;27.30;17.80;;;;;;;;;;5052556;28;20033;-65
2022/03/10 11:34:49;;;;;;;26.60;17.90;;;;;;;;;;5052837;28;20072;-65
2022/03/10 11:37:34;;;;;;;29.88;18.95;;;;;;;;;;5050916;28;20338;-65
2022/03/10 11:40:01;;;;;;;30.08;19.83;;;;;;;;;;5053354;28;20080;-65
2022/03/10 11:42:29;;;;;;;29.55;18.13;;;;;;;;;;5042288;28;20429;-65
2022/03/10 11:45:09;;;;;;;33.72;19.40;;;;;;;;;;5034614;28;20042;-65
2022/03/10 11:47:36;;;;;;;26.85;19.77;;;;;;;;;;5034453;28;20041;-65
2022/03/10 11:50:20;;;;;;;29.17;19.23;;;;;;;;;;5034037;28;20076;-65
2022/03/10 11:52:55;;;;;;;28.17;18.63;;;;;;;;;;5042604;28;20099;-65
2022/03/10 11:55:23;;;;;;;32.88;19.98;;;;;;;;;;5052938;28;20048;-65
2022/03/10 11:58:04;;;;;;;29.83;20.20;;;;;;;;;;5051811;28;20041;-65
2022/03/10 12:00:39;;;;;;;32.45;20.40;;;;;;;;;;5033700;28;20096;-65
2022/03/10 12:03:06;;;;;;;29.05;18.98;;;;;;;;;;5050558;28;20380;-65
2022/03/10 12:05:51;;;;;;;31.35;19.77;;;;;;;;;;5053021;28;20045;-65
2022/03/10 12:08:18;;;;;;;30.40;18.88;;;;;;;;;;5052430;28;20116;-65
2022/03/10 12:10:45;;;;;;;30.77;20.05;;;;;;;;;;5040651;28;20075;-65
2022/03/10 12:13:31;;;;;;;35.22;20.38;;;;;;;;;;5034147;28;20077;-65
2022/03/10 12:15:58;;;;;;;29.77;20.67;;;;;;;;;;5042321;28;20095;-66
2022/03/10 12:18:29;;;;;;;31.40;21.08;;;;;;;;;;5042602;28;20128;-66
2022/03/10 12:20:56;;;;;;;29.60;20.67;;;;;;;;;;5040425;28;20051;-66
2022/03/10 12:23:23;;;;;;;28.65;20.77;;;;;;;;;;5044367;28;20063;-66
2022/03/10 12:25:53;;;;;;;27.50;19.88;;;;;;;;;;5042191;28;20049;-66
2022/03/10 12:28:22;;;;;;;28.10;19.80;;;;;;;;;;5043349;28;20048;-66
2022/03/10 12:30:50;;;;;;;27.63;19.65;;;;;;;;;;5041406;28;20044;-65
2022/03/10 12:33:16;;;;;;;38.40;20.25;;;;;;;;;;5042349;28;20079;-66
2022/03/10 12:35:42;;;;;;;33.50;20.20;;;;;;;;;;5040890;28;20040;-65
2022/03/10 12:38:09;;;;;;;29.10;19.63;;;;;;;;;;5049792;28;20045;-65
2022/03/10 12:40:36;;;;;;;31.30;20.10;;;;;;;;;;5054940;28;20368;-65
2022/03/10 12:43:11;;;;;;;30.10;19.77;;;;;;;;;;5056390;28;20083;-65
2022/03/10 12:45:44;;;;;;;28.95;20.50;;;;;;;;;;5048444;28;20052;-65
2022/03/10 12:48:10;;;;;;;;;;;;;;;;;;5046578;28;20390;-66
2022/03/10 12:50:37;;;;;;;28.67;19.73;;;;;;;;;;5045751;28;19921;-66
2022/03/10 12:53:10;;;;;;;28.48;19.83;;;;;;;;;;5081512;28;20057;-66
2022/03/10 12:55:37;;;;;;;29.83;19.05;;;;;;;;;;5045550;28;20483;-66
2022/03/10 12:58:03;;;;;;;30.33;18.92;;;;;;;;;;5044490;28;20038;-65
2022/03/10 13:00:29;;;;;;;27.45;18.65;;;;;;;;;;5044087;28;20037;-65
2022/03/10 13:02:57;;;;;;;29.17;19.88;;;;;;;;;;5045848;28;20399;-65
2022/03/10 13:05:23;;;;;;;28.85;18.52;;;;;;;;;;5045786;28;20048;-65
2022/03/10 13:07:49;;;;;;;26.80;18.85;;;;;;;;;;5041535;28;20048;-66
2022/03/10 13:10:17;;;;;;;26.90;18.75;;;;;;;;;;5048757;28;20060;-66
2022/03/10 13:12:44;;;;;;;29.23;19.63;;;;;;;;;;5046119;28;20063;-66
2022/03/10 13:15:17;;;;;;;29.85;18.58;;;;;;;;;;5040276;28;20044;-65
2022/03/10 13:17:44;;;;;;;27.98;19.15;;;;;;;;;;5043539;28;20531;-66
2022/03/10 13:20:10;;;;;;;31.10;19.90;;;;;;;;;;5042808;28;20063;-66
2022/03/10 13:22:36;;;;;;;26.55;17.88;;;;;;;;;;5040921;28;20495;-66
2022/03/10 13:25:03;;;;;;;30.50;18.67;;;;;;;;;;5036749;28;20085;-66
2022/03/10 13:27:30;;;;;;;29.80;18.40;;;;;;;;;;5038802;28;20044;-65
2022/03/10 13:29:57;;;;;;;28.45;17.85;;;;;;;;;;5044872;28;20049;-65
2022/03/10 13:32:24;;;;;;;29.50;17.95;;;;;;;;;;5047504;28;20052;-65
2022/03/10 13:34:51;;;;;;;29.65;17.80;;;;;;;;;;5031676;28;20679;-65
2022/03/10 13:37:17;;;;;;;28.65;17.67;;;;;;;;;;5033959;28;20488;-65
2022/03/10 13:39:45;;;;;;;29.52;18.13;;;;;;;;;;5037673;28;20041;-65
2022/03/10 13:42:12;;;;;;;25.85;17.85;;;;;;;;;;5032409;28;20041;-65
2022/03/10 13:44:38;;;;;;;28.67;17.48;;;;;;;;;;5037246;28;20091;-65
2022/03/10 13:47:05;;;;;;;23.98;15.70;;;;;;;;;;5050105;28;20421;-65
2022/03/10 13:49:40;;;;;;;26.95;16.67;;;;;;;;;;5034805;28;20064;-65
2022/03/10 13:52:10;;;;;;;26.58;15.65;;;;;;;;;;5037167;28;20512;-65
2022/03/10 13:54:38;;;;;;;26.48;16.00;;;;;;;;;;5050460;28;20053;-65
2022/03/10 13:57:06;;;;;;;28.65;16.70;;;;;;;;;;5041694;28;20045;-65
2022/03/10 13:59:32;;;;;;;25.83;17.33;;;;;;;;;;5033168;28;20100;-65
2022/03/10 14:01:58;;;;;;;26.55;17.70;;;;;;;;;;5032155;28;20492;-65
2022/03/10 14:04:24;;;;;;;25.42;15.98;;;;;;;;;;5031969;28;20479;-65
2022/03/10 14:06:51;;;;;;;30.15;17.20;;;;;;;;;;5031078;28;20042;-65
2022/03/10 14:09:24;;;;;;;25.98;15.80;;;;;;;;;;5033895;28;20045;-65
2022/03/10 14:11:51;;;;;;;28.25;16.55;;;;;;;;;;5033689;28;20088;-65
2022/03/10 14:14:32;;;;;;;25.73;15.30;;;;;;;;;;5037433;28;20045;-66
2022/03/10 14:16:58;;;;;;;24.00;15.55;;;;;;;;;;5040409;28;20798;-65
2022/03/10 14:19:32;;;;;;;25.58;15.52;;;;;;;;;;5044125;28;20500;-65
2022/03/10 14:22:00;;;;;;;26.52;17.95;;;;;;;;;;5043223;28;20522;-66
2022/03/10 14:24:28;;;;;;;23.35;15.38;;;;;;;;;;5043337;28;20116;-64